createdAt,value
2023-01-07T05:00:51.123Z,88.64
2023-01-07T05:01:51.061Z,88.64
2023-01-07T05:02:50.834Z,88.74
2023-01-07T05:03:50.840Z,87.82
2023-01-07T05:04:50.845Z,88.33
2023-01-07T05:05:50.818Z,88.43
2023-01-07T05:06:50.853Z,88.74
2023-01-07T05:07:50.791Z,88.64
2023-01-07T05:08:50.773Z,88.23
2023-01-07T05:09:50.780Z,88.43
2023-01-07T05:10:50.803Z,89.04
2023-01-07T05:11:50.732Z,89.36
2023-01-07T05:12:50.768Z,89.04
2023-01-07T05:13:50.729Z,89.25
2023-01-07T05:14:50.690Z,88.74
2023-01-07T05:16:00.634Z,88.74
2023-01-07T05:16:50.699Z,88.95
2023-01-07T05:17:50.663Z,89.25
2023-01-07T05:18:50.682Z,89.25
2023-01-07T05:19:50.639Z,89.25
2023-01-07T05:20:50.609Z,89.46
2023-01-07T05:21:50.602Z,89.66
2023-01-07T05:22:50.575Z,89.46
2023-01-07T05:23:50.594Z,89.36
2023-01-07T05:24:50.604Z,89.36
2023-01-07T05:25:50.577Z,89.40
2023-01-07T05:26:50.524Z,89.40
2023-01-07T05:27:50.545Z,89.70
2023-01-07T05:28:50.507Z,89.81
2023-01-07T05:29:50.520Z,90.01
2023-01-07T05:30:50.579Z,89.91
2023-01-07T05:31:50.494Z,90.22
2023-01-07T05:32:50.452Z,90.42
2023-01-07T05:33:50.454Z,90.22
2023-01-07T05:34:50.409Z,90.32
2023-01-07T05:35:50.426Z,90.63
2023-01-07T05:36:50.466Z,90.63
2023-01-07T05:37:50.408Z,90.73
2023-01-07T05:38:50.371Z,90.53
2023-01-07T05:39:50.390Z,90.73
2023-01-07T05:40:50.333Z,90.53
2023-01-07T05:41:50.353Z,90.83
2023-01-07T05:42:50.357Z,90.83
2023-01-07T05:43:50.343Z,91.04
2023-01-07T05:44:50.301Z,91.25
2023-01-07T05:45:50.458Z,91.55
2023-01-07T05:46:50.270Z,91.35
2023-01-07T05:47:50.273Z,90.22
2023-01-07T05:48:50.285Z,89.29
2023-01-07T05:49:50.237Z,89.60
2023-01-07T05:50:50.211Z,88.78
2023-01-07T05:51:50.239Z,88.68
2023-01-07T05:52:50.190Z,88.78
2023-01-07T05:53:50.197Z,89.19
2023-01-07T05:54:50.248Z,89.50
2023-01-07T05:55:50.180Z,89.09
2023-01-07T05:56:50.138Z,89.15
2023-01-07T05:57:50.143Z,89.09
2023-01-07T05:58:50.117Z,89.25
2023-01-07T05:59:50.120Z,89.19
2023-01-07T06:00:50.166Z,89.29
2023-01-07T06:01:50.100Z,89.40
2023-01-07T06:02:50.057Z,89.81
2023-01-07T06:03:50.164Z,89.40
2023-01-07T06:04:50.160Z,89.50
2023-01-07T06:05:50.024Z,89.70
2023-01-07T06:06:50.036Z,89.70
2023-01-07T06:07:50.017Z,89.50
2023-01-07T06:08:50.190Z,89.70
2023-01-07T06:09:49.980Z,89.81
2023-01-07T06:10:49.950Z,89.91
2023-01-07T06:11:49.966Z,89.91
2023-01-07T06:12:49.938Z,89.70
2023-01-07T06:13:49.934Z,89.40
2023-01-07T06:14:49.945Z,89.19
2023-01-07T06:15:49.956Z,89.09
2023-01-07T06:16:49.873Z,89.76
2023-01-07T06:17:49.889Z,89.81
2023-01-07T06:18:49.871Z,89.91
2023-01-07T06:19:49.857Z,90.12
2023-01-07T06:20:49.909Z,90.63
2023-01-07T06:21:49.825Z,90.01
2023-01-07T06:22:49.792Z,90.22
2023-01-07T06:23:49.801Z,90.12
2023-01-07T06:24:49.763Z,90.63
2023-01-07T06:25:49.770Z,90.01
2023-01-07T06:26:49.907Z,90.22
2023-01-07T06:27:49.756Z,90.01
2023-01-07T06:28:49.718Z,90.22
2023-01-07T06:29:49.717Z,90.42
2023-01-07T06:30:49.701Z,90.94
2023-01-07T06:31:49.697Z,91.04
2023-01-07T06:32:49.718Z,91.25
2023-01-07T06:33:49.667Z,91.25
2023-01-07T06:34:49.647Z,91.35
2023-01-07T06:35:49.671Z,91.14
2023-01-07T06:36:49.607Z,91.25
2023-01-07T06:37:49.616Z,91.66
2023-01-07T06:38:49.676Z,91.45
2023-01-07T06:39:49.585Z,91.55
2023-01-07T06:40:49.554Z,91.76
2023-01-07T06:41:49.564Z,91.97
2023-01-07T06:42:49.537Z,92.17
2023-01-07T06:43:49.563Z,92.79
2023-01-07T06:44:49.537Z,93.20
2023-01-07T06:45:49.513Z,93.40
2023-01-07T06:46:49.482Z,93.55
2023-01-07T06:47:49.485Z,93.44
2023-01-07T06:48:49.452Z,93.55
2023-01-07T06:49:49.460Z,93.44
2023-01-07T06:50:49.506Z,93.55
2023-01-07T06:51:49.430Z,93.76
2023-01-07T06:52:49.404Z,93.86
2023-01-07T06:53:49.404Z,93.76
2023-01-07T06:54:49.378Z,93.86
2023-01-07T06:55:49.399Z,93.96
2023-01-07T06:56:49.427Z,93.96
2023-01-07T06:57:49.389Z,94.07
2023-01-07T06:58:49.350Z,94.07
2023-01-07T06:59:49.407Z,94.17
2023-01-07T07:00:49.309Z,93.96
2023-01-07T07:01:49.418Z,94.07
2023-01-07T07:02:49.339Z,93.96
2023-01-07T07:03:49.273Z,94.07
2023-01-07T07:04:49.240Z,93.65
2023-01-07T07:05:49.299Z,93.24
2023-01-07T07:06:49.220Z,93.24
2023-01-07T07:07:49.222Z,93.65
2023-01-07T07:08:49.196Z,93.76
2023-01-07T07:09:49.198Z,93.55
2023-01-07T07:10:49.179Z,93.65
2023-01-07T07:11:49.784Z,93.55
2023-01-07T07:12:49.141Z,93.55
2023-01-07T07:13:49.139Z,93.24
2023-01-07T07:14:49.132Z,92.93
2023-01-07T07:15:49.174Z,92.63
2023-01-07T07:16:49.099Z,92.83
2023-01-07T07:17:49.146Z,92.63
2023-01-07T07:18:49.056Z,92.73
2023-01-07T07:19:49.078Z,92.93
2023-01-07T07:20:49.193Z,92.73
2023-01-07T07:21:49.046Z,92.73
2023-01-07T07:22:49.021Z,92.93
2023-01-07T07:23:49.016Z,93.04
2023-01-07T07:24:48.984Z,92.73
2023-01-07T07:25:48.992Z,93.04
2023-01-07T07:26:49.167Z,92.93
2023-01-07T07:27:48.953Z,92.93
2023-01-07T07:28:48.950Z,92.83
2023-01-07T07:29:48.943Z,93.04
2023-01-07T07:30:48.994Z,92.83
2023-01-07T07:31:48.922Z,92.93
2023-01-07T07:32:48.995Z,93.04
2023-01-07T07:33:48.891Z,93.14
2023-01-07T07:34:48.850Z,93.24
2023-01-07T07:35:48.873Z,92.83
2023-01-07T07:36:48.828Z,92.73
2023-01-07T07:37:48.835Z,93.24
2023-01-07T07:38:48.881Z,93.65
2023-01-07T07:39:48.815Z,93.65
2023-01-07T07:40:48.773Z,93.76
2023-01-07T07:41:48.775Z,94.07
2023-01-07T07:43:11.658Z,93.86
2023-01-07T07:43:49.783Z,93.44
2023-01-07T07:44:48.732Z,93.65
2023-01-07T07:45:48.767Z,93.86
2023-01-07T07:46:48.727Z,93.65
2023-01-07T07:47:48.700Z,93.76
2023-01-07T07:48:48.669Z,94.27
2023-01-07T07:49:48.727Z,94.37
2023-01-07T07:50:48.648Z,94.78
2023-01-07T07:51:48.647Z,94.89
2023-01-07T07:52:48.617Z,94.99
2023-01-07T07:53:48.639Z,94.99
2023-01-07T07:54:48.637Z,94.58
2023-01-07T07:55:48.604Z,94.37
2023-01-07T07:56:48.565Z,94.58
2023-01-07T07:57:48.581Z,94.68
2023-01-07T07:58:48.547Z,94.58
2023-01-07T07:59:48.547Z,94.68
2023-01-07T08:00:48.764Z,94.58
2023-01-07T08:01:48.654Z,94.68
2023-01-07T08:02:48.512Z,94.89
2023-01-07T08:03:48.500Z,94.99
2023-01-07T08:04:48.464Z,95.30
2023-01-07T08:05:48.477Z,95.09
2023-01-07T08:06:48.561Z,95.40
2023-01-07T08:07:48.447Z,95.61
2023-01-07T08:08:48.444Z,95.61
2023-01-07T08:09:48.415Z,95.40
2023-01-07T08:10:48.386Z,95.25
2023-01-07T08:11:48.401Z,95.15
2023-01-07T08:12:48.409Z,95.05
2023-01-07T08:13:48.381Z,94.74
2023-01-07T08:14:48.333Z,94.54
2023-01-07T08:15:48.415Z,94.64
2023-01-07T08:16:48.320Z,94.95
2023-01-07T08:17:48.321Z,95.15
2023-01-07T08:18:48.282Z,95.05
2023-01-07T08:19:48.296Z,94.84
2023-01-07T08:20:48.296Z,94.74
2023-01-07T08:21:48.269Z,94.84
2023-01-07T08:22:48.241Z,95.01
2023-01-07T08:23:48.251Z,94.70
2023-01-07T08:24:48.208Z,94.70
2023-01-07T08:25:48.268Z,94.59
2023-01-07T08:26:48.198Z,94.08
2023-01-07T08:27:48.203Z,93.67
2023-01-07T08:28:48.238Z,93.05
2023-01-07T08:29:48.172Z,93.26
2023-01-07T08:30:48.124Z,94.18
2023-01-07T08:31:48.199Z,94.08
2023-01-07T08:32:48.103Z,93.87
2023-01-07T08:33:48.117Z,92.85
2023-01-07T08:34:48.094Z,91.88
2023-01-07T08:35:48.819Z,92.08
2023-01-07T08:36:48.055Z,91.78
2023-01-07T08:37:48.064Z,91.27
2023-01-07T08:38:48.048Z,91.78
2023-01-07T08:39:48.011Z,91.37
2023-01-07T08:40:48.014Z,90.85
2023-01-07T08:41:48.065Z,90.65
2023-01-07T08:42:47.986Z,91.12
2023-01-07T08:43:47.964Z,90.71
2023-01-07T08:44:48.053Z,89.37
2023-01-07T08:45:47.984Z,88.04
2023-01-07T08:46:48.021Z,88.04
2023-01-07T08:47:47.905Z,87.73
2023-01-07T08:48:47.913Z,87.63
2023-01-07T08:49:47.881Z,87.28
2023-01-07T08:50:47.934Z,86.87
2023-01-07T08:51:47.860Z,86.77
2023-01-07T08:52:47.863Z,85.85
2023-01-07T08:53:47.838Z,85.85
2023-01-07T08:54:48.253Z,85.23
2023-01-07T08:55:47.841Z,84.52
2023-01-07T08:56:47.811Z,84.20
2023-01-07T08:57:47.782Z,84.10
2023-01-07T08:58:47.817Z,83.86
2023-01-07T08:59:47.758Z,83.65
2023-01-07T09:00:47.832Z,83.96
2023-01-07T09:01:47.875Z,83.96
2023-01-07T09:02:47.758Z,84.06
2023-01-07T09:03:47.710Z,84.99
2023-01-07T09:04:47.713Z,84.78
2023-01-07T09:05:47.672Z,83.92
2023-01-07T09:06:47.719Z,83.31
2023-01-07T09:07:47.702Z,83.61
2023-01-07T09:08:47.660Z,83.92
2023-01-07T09:09:47.651Z,84.12
2023-01-07T09:10:47.637Z,83.51
2023-01-07T09:11:47.675Z,83.51
2023-01-07T09:12:47.607Z,83.47
2023-01-07T09:13:47.584Z,82.96
2023-01-07T09:14:47.578Z,82.65
2023-01-07T09:15:47.548Z,82.96
2023-01-07T09:16:47.576Z,83.17
2023-01-07T09:17:48.419Z,82.45
2023-01-07T09:18:47.547Z,82.35
2023-01-07T09:19:47.497Z,81.73
2023-01-07T09:20:47.508Z,82.14
2023-01-07T09:21:47.480Z,81.43
2023-01-07T09:22:47.488Z,81.12
2023-01-07T09:23:47.487Z,80.40
2023-01-07T09:24:48.069Z,81.01
2023-01-07T09:25:47.436Z,80.81
2023-01-07T09:26:47.443Z,80.81
2023-01-07T09:27:47.406Z,80.88
2023-01-07T09:28:47.426Z,80.67
2023-01-07T09:29:47.535Z,80.67
2023-01-07T09:30:47.394Z,81.49
2023-01-07T09:31:47.403Z,80.36
2023-01-07T09:32:47.363Z,80.57
2023-01-07T09:33:47.323Z,79.54
2023-01-07T09:34:47.326Z,79.64
2023-01-07T09:35:47.533Z,80.46
2023-01-07T09:36:47.314Z,78.72
2023-01-07T09:37:47.268Z,78.52
2023-01-07T09:38:47.271Z,78.83
2023-01-07T09:39:47.245Z,78.93
2023-01-07T09:40:47.244Z,79.03
2023-01-07T09:41:47.262Z,78.42
2023-01-07T09:42:47.221Z,78.63
2023-01-07T09:43:59.835Z,78.42
2023-01-07T09:44:48.210Z,78.42
2023-01-07T09:45:47.200Z,78.83
2023-01-07T09:46:47.172Z,78.72
2023-01-07T09:47:47.215Z,78.52
2023-01-07T09:48:47.142Z,78.38
2023-01-07T09:49:47.111Z,78.28
2023-01-07T09:50:47.119Z,77.97
2023-01-07T09:51:47.087Z,77.87
2023-01-07T09:52:47.080Z,77.97
2023-01-07T09:53:47.117Z,77.76
2023-01-07T09:54:47.080Z,76.95
2023-01-07T09:56:11.199Z,77.26
2023-01-07T09:56:48.061Z,77.15
2023-01-07T09:57:47.020Z,77.56
2023-01-07T09:58:47.067Z,77.67
2023-01-07T09:59:48.399Z,77.67
2023-01-07T10:00:46.990Z,77.53
2023-01-07T10:01:46.957Z,76.91
2023-01-07T10:02:47.034Z,76.91
2023-01-07T10:03:46.957Z,77.63
2023-01-07T10:04:46.929Z,77.01
2023-01-07T10:05:47.113Z,77.01
2023-01-07T10:06:46.923Z,76.81
2023-01-07T10:07:46.883Z,76.40
2023-01-07T10:08:46.887Z,75.68
2023-01-07T10:09:46.866Z,75.89
2023-01-07T10:10:46.864Z,75.89
2023-01-07T10:11:47.054Z,76.30
2023-01-07T10:12:46.829Z,75.99
2023-01-07T10:13:46.804Z,75.79
2023-01-07T10:14:46.851Z,75.99
2023-01-07T10:15:46.771Z,75.59
2023-01-07T10:16:46.846Z,75.59
2023-01-07T10:17:46.844Z,75.59
2023-01-07T10:18:46.753Z,75.79
2023-01-07T10:19:46.735Z,75.89
2023-01-07T10:20:46.742Z,75.89
2023-01-07T10:21:46.702Z,75.38
2023-01-07T10:22:46.746Z,75.27
2023-01-07T10:23:46.654Z,75.27
2023-01-07T10:24:46.664Z,75.14
2023-01-07T10:25:46.633Z,74.52
2023-01-07T10:26:46.641Z,75.24
2023-01-07T10:27:46.660Z,74.80
2023-01-07T10:28:46.651Z,73.88
2023-01-07T10:29:46.582Z,74.39
2023-01-07T10:30:46.593Z,74.39
2023-01-07T10:31:46.638Z,73.98
2023-01-07T10:32:46.801Z,73.68
2023-01-07T10:33:46.538Z,73.57
2023-01-07T10:34:46.544Z,73.36
2023-01-07T10:35:46.600Z,73.06
2023-01-07T10:36:46.504Z,73.77
2023-01-07T10:37:46.484Z,73.77
2023-01-07T10:38:46.520Z,73.36
2023-01-07T10:39:46.461Z,73.98
2023-01-07T10:40:46.459Z,73.40
2023-01-07T10:41:46.418Z,73.81
2023-01-07T10:42:46.560Z,73.61
2023-01-07T10:43:46.400Z,73.61
2023-01-07T10:44:46.416Z,73.81
2023-01-07T10:45:46.445Z,74.15
2023-01-07T10:46:46.385Z,74.56
2023-01-07T10:47:46.462Z,75.01
2023-01-07T10:48:46.379Z,75.93
2023-01-07T10:49:53.335Z,75.62
2023-01-07T10:50:46.334Z,75.99
2023-01-07T10:51:46.283Z,76.50
2023-01-07T10:52:46.293Z,76.40
2023-01-07T10:53:46.392Z,76.30
2023-01-07T10:54:46.264Z,75.89
2023-01-07T10:55:46.254Z,75.17
2023-01-07T10:56:46.242Z,75.27
2023-01-07T10:57:46.215Z,75.38
2023-01-07T10:58:46.231Z,75.38
2023-01-07T10:59:46.224Z,75.38
2023-01-07T11:00:46.849Z,75.38
2023-01-07T11:01:46.276Z,75.68
2023-01-07T11:02:46.274Z,76.50
2023-01-07T11:03:46.148Z,75.79
2023-01-07T11:04:46.152Z,75.79
2023-01-07T11:05:46.132Z,75.79
2023-01-07T11:06:46.181Z,75.48
2023-01-07T11:07:46.097Z,75.38
2023-01-07T11:08:46.089Z,76.20
2023-01-07T11:09:46.072Z,75.68
2023-01-07T11:10:46.085Z,75.89
2023-01-07T11:11:46.046Z,75.68
2023-01-07T11:12:46.150Z,75.38
2023-01-07T11:13:46.023Z,75.17
2023-01-07T11:14:46.029Z,75.38
2023-01-07T11:15:53.017Z,75.27
2023-01-07T11:16:46.064Z,75.27
2023-01-07T11:17:45.975Z,75.59
2023-01-07T11:18:46.053Z,75.38
2023-01-07T11:19:46.016Z,75.07
2023-01-07T11:20:46.018Z,74.87
2023-01-07T11:21:45.931Z,75.48
2023-01-07T11:22:45.951Z,75.17
2023-01-07T11:23:45.900Z,74.76
2023-01-07T11:24:45.899Z,74.56
2023-01-07T11:25:45.889Z,74.76
2023-01-07T11:26:45.958Z,75.48
2023-01-07T11:27:45.844Z,75.48
2023-01-07T11:28:45.867Z,75.17
2023-01-07T11:29:45.846Z,75.17
2023-01-07T11:30:45.894Z,75.07
2023-01-07T11:31:45.852Z,74.87
2023-01-07T11:32:45.814Z,75.07
2023-01-07T11:34:02.718Z,74.87
2023-01-07T11:34:46.785Z,75.07
2023-01-07T11:35:45.735Z,76.30
2023-01-07T11:36:45.956Z,75.07
2023-01-07T11:37:45.775Z,75.17
2023-01-07T11:38:45.733Z,75.38
2023-01-07T11:39:45.694Z,74.76
2023-01-07T11:40:45.747Z,75.07
2023-01-07T11:41:45.661Z,75.38
2023-01-07T11:42:45.740Z,74.87
2023-01-07T11:43:45.640Z,75.17
2023-01-07T11:44:45.653Z,75.27
2023-01-07T11:45:45.654Z,74.93
2023-01-07T11:46:46.669Z,74.56
2023-01-07T11:47:45.602Z,74.76
2023-01-07T11:48:45.754Z,74.52
2023-01-07T11:49:45.601Z,74.22
2023-01-07T11:50:45.571Z,74.32
2023-01-07T11:51:45.563Z,74.52
2023-01-07T11:52:45.569Z,73.91
2023-01-07T11:53:45.508Z,73.91
2023-01-07T11:54:45.700Z,74.11
2023-01-07T11:55:45.495Z,74.11
2023-01-07T11:56:45.495Z,74.11
2023-01-07T11:57:45.460Z,74.02
2023-01-07T11:58:45.496Z,74.11
2023-01-07T11:59:45.447Z,74.11
2023-01-07T12:00:45.619Z,73.61
2023-01-07T12:01:45.419Z,73.81
2023-01-07T12:02:45.484Z,74.11
2023-01-07T12:03:45.481Z,74.11
2023-01-07T12:04:45.422Z,74.02
2023-01-07T12:05:45.379Z,73.81
2023-01-07T12:06:45.547Z,73.10
2023-01-07T12:07:45.351Z,73.40
2023-01-07T12:08:45.367Z,73.40
2023-01-07T12:09:45.328Z,73.20
2023-01-07T12:10:45.319Z,73.10
2023-01-07T12:11:45.379Z,73.71
2023-01-07T12:12:45.368Z,74.11
2023-01-07T12:13:45.290Z,74.22
2023-01-07T12:14:45.315Z,74.02
2023-01-07T12:15:45.235Z,73.61
2023-01-07T12:16:45.328Z,74.22
2023-01-07T12:17:45.241Z,74.52
2023-01-07T12:18:45.852Z,74.22
2023-01-07T12:19:45.213Z,74.52
2023-01-07T12:20:45.198Z,73.40
2023-01-07T12:21:45.227Z,74.11
2023-01-07T12:22:45.228Z,74.02
2023-01-07T12:23:45.196Z,74.43
2023-01-07T12:24:45.705Z,74.32
2023-01-07T12:25:45.125Z,74.11
2023-01-07T12:26:45.135Z,74.32
2023-01-07T12:27:45.093Z,74.52
2023-01-07T12:28:45.093Z,74.11
2023-01-07T12:29:45.061Z,74.73
2023-01-07T12:30:45.225Z,74.52
2023-01-07T12:31:45.108Z,74.63
2023-01-07T12:32:45.040Z,74.73
2023-01-07T12:33:45.134Z,75.14
2023-01-07T12:34:45.112Z,75.24
2023-01-07T12:35:45.044Z,75.04
2023-01-07T12:36:45.002Z,74.32
2023-01-07T12:37:44.966Z,74.43
2023-01-07T12:38:44.962Z,73.91
2023-01-07T12:39:45.550Z,74.22
2023-01-07T12:40:44.981Z,74.32
2023-01-07T12:41:44.920Z,73.91
2023-01-07T12:42:44.924Z,73.81
2023-01-07T12:43:44.885Z,74.43
2023-01-07T12:44:44.905Z,74.32
2023-01-07T12:45:44.942Z,74.43
2023-01-07T12:46:44.877Z,74.22
2023-01-07T12:47:44.858Z,74.11
2023-01-07T12:48:44.849Z,74.26
2023-01-07T12:49:44.827Z,74.22
2023-01-07T12:50:44.834Z,73.91
2023-01-07T12:51:45.547Z,73.91
2023-01-07T12:52:44.794Z,74.02
2023-01-07T12:53:44.777Z,74.32
2023-01-07T12:54:44.838Z,74.32
2023-01-07T12:55:44.861Z,74.11
2023-01-07T12:56:44.721Z,74.22
2023-01-07T12:57:44.886Z,74.43
2023-01-07T12:58:44.753Z,73.61
2023-01-07T12:59:47.126Z,73.71
2023-01-07T13:00:44.674Z,73.81
2023-01-07T13:01:44.877Z,73.81
2023-01-07T13:02:44.647Z,74.43
2023-01-07T13:03:44.714Z,74.32
2023-01-07T13:04:44.647Z,74.22
2023-01-07T13:05:44.796Z,74.11
2023-01-07T13:06:44.645Z,73.71
2023-01-07T13:07:44.604Z,74.63
2023-01-07T13:08:44.576Z,74.32
2023-01-07T13:09:44.593Z,73.10
2023-01-07T13:10:44.564Z,73.40
2023-01-07T13:11:45.177Z,73.30
2023-01-07T13:12:45.703Z,73.61
2023-01-07T13:13:44.548Z,73.20
2023-01-07T13:14:44.506Z,73.10
2023-01-07T13:15:44.644Z,72.38
2023-01-07T13:16:44.491Z,72.48
2023-01-07T13:17:44.800Z,72.69
2023-01-07T13:18:44.451Z,72.28
2023-01-07T13:19:44.452Z,73.10
2023-01-07T13:20:44.422Z,72.99
2023-01-07T13:21:44.495Z,72.55
2023-01-07T13:22:44.523Z,72.86
2023-01-07T13:23:45.133Z,72.96
2023-01-07T13:24:55.742Z,73.16
2023-01-07T13:25:45.416Z,72.55
2023-01-07T13:26:44.351Z,72.86
2023-01-07T13:27:44.377Z,72.55
2023-01-07T13:28:44.322Z,72.75
2023-01-07T13:29:44.454Z,72.14
2023-01-07T13:30:44.352Z,72.45
2023-01-07T13:31:44.413Z,73.06
2023-01-07T13:32:44.280Z,73.06
2023-01-07T13:33:44.296Z,73.27
2023-01-07T13:34:44.240Z,73.98
2023-01-07T13:35:44.305Z,74.18
2023-01-07T13:36:44.393Z,74.59
2023-01-07T13:37:44.289Z,74.39
2023-01-07T13:38:44.201Z,74.49
2023-01-07T13:39:44.269Z,74.69
2023-01-07T13:40:44.158Z,74.69
2023-01-07T13:41:44.183Z,74.63
2023-01-07T13:42:44.268Z,74.93
2023-01-07T13:43:44.171Z,75.14
2023-01-07T13:44:44.138Z,75.75
2023-01-07T13:45:44.190Z,75.85
2023-01-07T13:46:44.129Z,75.45
2023-01-07T13:47:44.114Z,75.75
2023-01-07T13:48:44.450Z,75.55
2023-01-07T13:49:56.500Z,76.26
2023-01-07T13:50:45.062Z,75.65
2023-01-07T13:51:44.070Z,75.14
2023-01-07T13:52:44.073Z,75.24
2023-01-07T13:53:44.077Z,75.65
2023-01-07T13:54:44.365Z,75.96
2023-01-07T13:55:43.995Z,75.96
2023-01-07T13:56:43.966Z,76.06
2023-01-07T13:57:44.020Z,76.16
2023-01-07T13:58:43.999Z,75.96
2023-01-07T13:59:43.940Z,75.96
2023-01-07T14:00:44.195Z,75.96
2023-01-07T14:01:44.130Z,76.37
2023-01-07T14:02:43.965Z,76.06
2023-01-07T14:03:43.967Z,75.55
2023-01-07T14:04:43.903Z,75.14
2023-01-07T14:05:43.884Z,75.34
2023-01-07T14:06:44.799Z,75.14
2023-01-07T14:07:43.844Z,75.04
2023-01-07T14:08:43.813Z,75.45
2023-01-07T14:09:43.840Z,75.34
2023-01-07T14:10:43.815Z,75.34
2023-01-07T14:11:43.801Z,75.45
2023-01-07T14:12:44.451Z,75.55
2023-01-07T14:13:43.772Z,75.14
2023-01-07T14:14:43.734Z,75.14
2023-01-07T14:15:43.848Z,74.73
2023-01-07T14:16:43.727Z,74.56
2023-01-07T14:17:43.732Z,73.54
2023-01-07T14:18:44.246Z,73.54
2023-01-07T14:19:43.731Z,73.64
2023-01-07T14:20:43.671Z,73.94
2023-01-07T14:21:43.698Z,74.15
2023-01-07T14:22:43.640Z,74.35
2023-01-07T14:23:43.653Z,74.46
2023-01-07T14:24:43.652Z,74.66
2023-01-07T14:25:43.676Z,75.07
2023-01-07T14:26:43.597Z,74.97
2023-01-07T14:27:43.594Z,74.35
2023-01-07T14:28:43.580Z,74.15
2023-01-07T14:29:43.591Z,74.35
2023-01-07T14:30:43.592Z,74.26
2023-01-07T14:31:43.578Z,74.35
2023-01-07T14:32:43.508Z,74.26
2023-01-07T14:33:43.543Z,73.50
2023-01-07T14:34:43.517Z,72.31
2023-01-07T14:35:43.488Z,71.56
2023-01-07T14:36:43.519Z,70.72
2023-01-07T14:37:43.528Z,69.93
2023-01-07T14:38:43.436Z,68.91
2023-01-07T14:39:43.510Z,68.48
2023-01-07T14:40:43.425Z,67.93
2023-01-07T14:41:43.470Z,67.63
2023-01-07T14:42:43.578Z,67.19
2023-01-07T14:43:43.477Z,67.19
2023-01-07T14:44:43.437Z,67.52
2023-01-07T14:45:43.391Z,68.13
2023-01-07T14:46:43.405Z,68.27
2023-01-07T14:47:43.357Z,68.78
2023-01-07T14:48:43.427Z,69.66
2023-01-07T14:49:43.321Z,70.31
2023-01-07T14:50:43.283Z,71.26
2023-01-07T14:51:43.286Z,71.70
2023-01-07T14:52:43.268Z,72.34
2023-01-07T14:53:43.276Z,72.96
2023-01-07T14:54:43.304Z,73.30
2023-01-07T14:55:43.271Z,73.71
2023-01-07T14:56:43.303Z,74.35
2023-01-07T14:57:43.220Z,74.46
2023-01-07T14:58:43.170Z,74.60
2023-01-07T14:59:43.163Z,75.10
2023-01-07T15:00:43.762Z,75.42
2023-01-07T15:01:43.355Z,75.86
2023-01-07T15:02:43.139Z,76.37
2023-01-07T15:03:43.152Z,76.27
2023-01-07T15:04:43.084Z,76.31
2023-01-07T15:05:43.115Z,76.92
2023-01-07T15:06:43.321Z,76.61
2023-01-07T15:07:43.102Z,76.92
2023-01-07T15:08:43.051Z,77.23
2023-01-07T15:09:43.060Z,77.47
2023-01-07T15:10:43.029Z,77.98
2023-01-07T15:11:43.039Z,78.08
2023-01-07T15:12:43.065Z,78.12
2023-01-07T15:13:43.052Z,78.83
2023-01-07T15:14:42.984Z,78.74
2023-01-07T15:15:43.024Z,79.18
2023-01-07T15:16:42.948Z,79.28
2023-01-07T15:17:42.957Z,79.59
2023-01-07T15:18:43.423Z,80.35
2023-01-07T15:19:43.025Z,80.76
2023-01-07T15:20:42.879Z,80.96
2023-01-07T15:21:42.911Z,81.16
2023-01-07T15:22:42.885Z,81.41
2023-01-07T15:23:42.902Z,81.62
2023-01-07T15:24:42.941Z,81.82
2023-01-07T15:25:42.845Z,81.92
2023-01-07T15:26:42.818Z,82.17
2023-01-07T15:27:42.993Z,82.68
2023-01-07T15:28:42.810Z,82.68
2023-01-07T15:29:42.819Z,83.33
2023-01-07T15:30:42.782Z,83.54
2023-01-07T15:31:42.822Z,83.75
2023-01-07T15:32:42.736Z,83.89
2023-01-07T15:33:42.806Z,84.50
2023-01-07T15:34:42.737Z,84.91
2023-01-07T15:35:42.836Z,85.36
2023-01-07T15:36:42.739Z,85.78
2023-01-07T15:37:42.693Z,86.08
2023-01-07T15:38:42.655Z,86.29
2023-01-07T15:39:42.755Z,86.54
2023-01-07T15:40:42.635Z,86.74
2023-01-07T15:41:42.738Z,86.43
2023-01-07T15:42:42.604Z,86.64
2023-01-07T15:43:42.642Z,86.43
2023-01-07T15:44:42.583Z,86.68
2023-01-07T15:45:50.141Z,87.19
2023-01-07T15:46:50.152Z,87.92
2023-01-07T15:47:50.056Z,88.57
2023-01-07T15:48:50.033Z,89.09
2023-01-07T15:49:50.055Z,89.50
2023-01-07T15:50:42.520Z,89.75
2023-01-07T15:51:42.500Z,90.16
2023-01-07T15:52:50.059Z,90.57
2023-01-07T15:53:49.988Z,90.78
2023-01-07T15:54:49.966Z,90.67
2023-01-07T15:55:50.107Z,90.88
2023-01-07T15:56:49.931Z,90.99
2023-01-07T15:57:42.778Z,90.78
2023-01-07T15:58:49.887Z,90.99
2023-01-07T15:59:42.387Z,91.09
2023-01-07T16:00:49.404Z,91.19
2023-01-07T16:01:42.584Z,91.40
2023-01-07T16:02:49.894Z,91.09
2023-01-07T16:03:49.882Z,90.82
2023-01-07T16:04:49.881Z,91.03
2023-01-07T16:05:49.944Z,91.44
2023-01-07T16:06:49.804Z,91.64
2023-01-07T16:07:49.801Z,91.96
2023-01-07T16:08:50.825Z,92.16
2023-01-07T16:09:49.781Z,92.31
2023-01-07T16:10:49.763Z,92.41
2023-01-07T16:11:49.775Z,92.51
2023-01-07T16:12:49.718Z,93.03
2023-01-07T16:13:49.735Z,93.49
2023-01-07T16:14:49.788Z,93.79
2023-01-07T16:15:49.795Z,93.90
2023-01-07T16:16:49.695Z,93.90
2023-01-07T16:17:42.153Z,94.00
2023-01-07T16:18:42.174Z,94.42
2023-01-07T16:19:42.144Z,94.42
2023-01-07T16:20:42.405Z,94.42
2023-01-07T16:21:42.099Z,94.21
2023-01-07T16:22:42.130Z,94.21
2023-01-07T16:23:42.161Z,94.31
2023-01-07T16:24:42.087Z,94.93
2023-01-07T16:25:42.068Z,95.28
2023-01-07T16:26:42.069Z,96.01
2023-01-07T16:27:42.011Z,96.52
2023-01-07T16:28:42.063Z,96.37
2023-01-07T16:29:42.343Z,96.27
2023-01-07T16:30:42.021Z,96.27
2023-01-07T16:31:42.033Z,95.86
2023-01-07T16:32:41.969Z,95.45
2023-01-07T16:33:41.986Z,95.55
2023-01-07T16:34:41.978Z,95.61
2023-01-07T16:35:41.999Z,95.50
2023-01-07T16:36:41.948Z,95.09
2023-01-07T16:37:41.912Z,94.64
2023-01-07T16:38:41.912Z,94.32
2023-01-07T16:39:41.880Z,94.02
2023-01-07T16:40:42.335Z,93.91
2023-01-07T16:41:41.877Z,94.02
2023-01-07T16:42:41.856Z,93.91
2023-01-07T16:43:41.856Z,93.35
2023-01-07T16:44:41.888Z,93.05
2023-01-07T16:45:41.801Z,92.63
2023-01-07T16:46:42.741Z,92.63
2023-01-07T16:47:41.819Z,93.05
2023-01-07T16:48:41.776Z,92.94
2023-01-07T16:49:41.733Z,93.50
2023-01-07T16:50:41.767Z,93.81
2023-01-07T16:51:41.708Z,94.12
2023-01-07T16:52:41.770Z,94.57
2023-01-07T16:53:41.808Z,94.99
2023-01-07T16:54:41.692Z,95.61
2023-01-07T16:55:41.667Z,95.65
2023-01-07T16:56:41.674Z,96.37
2023-01-07T16:57:41.651Z,96.58
2023-01-07T16:58:41.641Z,96.69
2023-01-07T16:59:41.646Z,97.04
2023-01-07T17:00:41.924Z,96.83
2023-01-07T17:01:41.604Z,96.52
2023-01-07T17:02:41.608Z,96.42
2023-01-07T17:03:41.612Z,96.42
2023-01-07T17:04:41.559Z,96.31
2023-01-07T17:05:41.544Z,96.73
2023-01-07T17:06:41.883Z,96.94
2023-01-07T17:07:41.534Z,97.04
2023-01-07T17:08:41.540Z,96.83
2023-01-07T17:09:41.616Z,96.83
2023-01-07T17:10:41.486Z,96.94
2023-01-07T17:11:41.459Z,96.56
2023-01-07T17:12:41.550Z,96.98
2023-01-07T17:13:41.458Z,97.08
2023-01-07T17:14:41.432Z,97.19
2023-01-07T17:15:50.902Z,97.54
2023-01-07T17:16:45.072Z,97.54
2023-01-07T17:17:41.970Z,97.96
2023-01-07T17:18:41.840Z,98.16
2023-01-07T17:19:41.616Z,98.62
2023-01-07T17:20:41.767Z,98.62
2023-01-07T17:21:41.992Z,98.83
2023-01-07T17:22:41.943Z,99.65
2023-01-07T17:23:41.920Z,99.76
2023-01-07T17:24:41.899Z,99.44
2023-01-07T17:25:41.886Z,99.65
2023-01-07T17:26:41.989Z,99.86
2023-01-07T17:27:41.831Z,99.76
2023-01-07T17:28:41.869Z,99.55
2023-01-07T17:29:41.842Z,99.99
2023-01-07T17:30:42.091Z,99.44
2023-01-07T17:31:41.784Z,99.24
2023-01-07T17:32:41.784Z,99.55
2023-01-07T17:33:41.658Z,99.99
2023-01-07T17:34:41.820Z,99.99
2023-01-07T17:35:41.441Z,99.86
2023-01-07T17:36:42.038Z,99.76
2023-01-07T17:37:42.225Z,99.99
2023-01-07T17:38:41.718Z,99.99
2023-01-07T17:39:41.322Z,99.99
2023-01-07T17:40:41.753Z,99.99
2023-01-07T17:41:41.773Z,99.99
2023-01-07T17:42:41.812Z,99.99
2023-01-07T17:43:41.349Z,99.99
2023-01-07T17:44:41.504Z,99.99
2023-01-07T17:45:41.369Z,99.99
2023-01-07T17:46:41.129Z,99.99
2023-01-07T17:47:41.913Z,99.99
2023-01-07T17:48:41.694Z,99.99
2023-01-07T17:49:41.934Z,99.99
2023-01-07T17:50:41.770Z,99.99
2023-01-07T17:51:41.528Z,99.99
2023-01-07T17:52:41.484Z,99.99